Latest Weather Observations for Forrest

IDW60801

Issued at 11:32 pm WST Saturday 13 February 2016 (issued every 30 minutes, with the page automatically refreshed every 10 minutes)

About weather observations | Map of weather stations | Latest weather observations for WA | Other Formats
Station Details ID: 011052 Name: FORREST Lat: -30.85 Lon: 128.11 Height: 159.0 m
Data from the previous 72 hours. | See also: Recent months at Forrest
Date/Time
WST
Temp
°C
App
Temp
°C
Dew
Point
Rel
Hum
%
Delta-T
°C
Wind Press
QNH
hPa
Press
MSL
hPa
Rain
since 9 am
mm
Dir
 
Spd
km/h
Gust
km/h
Spd
kts
Gust
kts
13/11:30pm 19.2 15.7 14.5 74 2.7 SSE 26 37 14 20 1019.4 - 0.0
13/11:00pm 19.7 15.4 14.3 71 3.1 SSE 30 39 16 21 1019.5 - 0.0
13/10:30pm 19.9 15.7 14.7 72 3.1 SSE 30 41 16 22 1019.6 - 0.0
13/10:00pm 19.8 16.2 15.2 75 2.7 SSE 28 39 15 21 1019.7 - 0.0
13/09:30pm 20.5 17.3 15.3 72 3.1 SSE 26 33 14 18 1019.7 - 0.0
13/09:00pm 20.8 17.9 15.1 70 3.4 SSE 24 33 13 18 1019.7 1019.0 0.0
13/08:30pm 20.7 16.6 15.0 70 3.4 SSE 30 41 16 22 1019.6 - 0.0
13/08:00pm 21.0 17.1 15.5 71 3.3 SSE 30 39 16 21 1019.3 - 0.0
13/07:30pm 21.2 16.9 14.4 65 4.0 SSE 30 39 16 21 1019.0 - 0.0
13/07:00pm 22.0 17.7 14.4 62 4.5 SSE 30 39 16 21 1018.6 - 0.0
13/06:30pm 22.0 17.9 14.9 64 4.2 SSE 30 41 16 22 1018.1 - 0.0
13/06:00pm 22.8 18.2 14.6 60 4.9 SSE 32 43 17 23 1017.4 1016.8 0.0
13/05:30pm 23.8 19.7 15.0 57 5.3 SSE 30 41 16 22 1017.0 - 0.0
13/05:00pm 24.8 19.9 14.3 52 6.3 SSE 33 44 18 24 1016.5 - 0.0
13/04:46pm 25.4 20.6 14.5 51 6.5 SSE 33 52 18 28 1016.2 - 0.0
13/04:30pm 25.7 20.9 14.5 50 6.7 SSE 33 48 18 26 1016.0 - 0.0
13/04:00pm 26.9 22.3 14.6 46 7.4 SSE 32 44 17 24 1015.8 - 0.0
13/03:30pm 27.9 23.2 14.9 45 7.9 SSE 33 46 18 25 1015.6 - 0.0
13/03:00pm 28.7 24.2 14.9 43 8.4 SSE 32 41 17 22 1015.4 1014.7 0.0
13/02:30pm 29.3 25.3 15.1 42 8.7 SSE 30 46 16 25 1015.3 - 0.0
13/02:00pm 29.4 24.7 14.4 40 9.1 SSE 32 43 17 23 1015.5 - 0.0
13/01:30pm 29.1 25.1 14.1 40 9.1 SSE 28 37 15 20 1015.6 - 0.0
13/01:00pm 29.1 25.5 14.1 40 9.1 SSE 26 41 14 22 1015.8 - 0.0
13/12:30pm 29.3 25.5 13.5 38 9.5 SSE 26 37 14 20 1016.0 - 0.0
13/12:00pm 28.9 25.9 14.7 42 8.7 S 24 33 13 18 1016.3 1015.6 0.0
13/11:30am 28.1 24.1 14.0 42 8.5 S 28 41 15 22 1016.4 - 0.0
13/11:00am 28.3 24.6 14.9 44 8.2 S 28 39 15 21 1016.6 - 0.0
13/10:30am 26.9 22.8 15.0 48 7.2 S 30 41 16 22 1016.9 - 0.0
13/10:00am 26.4 23.0 15.8 52 6.5 SSE 28 41 15 22 1017.1 - 0.0
13/09:30am 25.1 21.9 16.3 58 5.4 SSE 28 39 15 21 1017.1 - 0.0
13/09:00am 24.7 21.3 16.7 61 4.9 S 30 37 16 20 1017.3 1016.7 0.0
13/08:30am 23.5 20.5 16.8 66 4.1 S 28 39 15 21 1017.4 - 0.0
13/08:00am 23.0 19.9 16.5 67 4.0 S 28 37 15 20 1017.2 - 0.0
13/07:30am 21.8 18.2 16.3 71 3.3 S 30 39 16 21 1017.2 - 0.0
13/07:00am 21.1 17.6 16.5 75 2.8 SSE 30 37 16 20 1016.9 - 0.0
13/06:30am 20.8 17.9 17.0 79 2.3 S 28 37 15 20 1016.7 - 0.0
13/06:00am 20.0 17.8 16.8 82 1.9 SSE 24 35 13 19 1016.4 1015.7 0.0
13/05:30am 19.9 17.6 16.7 82 1.9 SSE 24 32 13 17 1016.1 - 0.0
13/05:00am 19.8 17.2 16.8 83 1.8 SSE 26 35 14 19 1015.8 - 0.0
13/04:30am 19.9 17.8 17.1 84 1.7 S 24 33 13 18 1015.3 - 0.0
13/04:00am 20.0 18.4 17.4 85 1.6 S 22 30 12 16 1014.9 - 0.0
13/03:30am 19.8 18.2 17.4 86 1.5 S 22 32 12 17 1014.6 - 0.0
13/03:00am 19.6 17.6 17.4 87 1.4 S 24 33 13 18 1014.3 1013.6 0.0
13/02:30am 19.6 18.4 17.6 88 1.2 S 20 30 11 16 1014.2 - 0.0
13/02:00am 19.6 18.1 17.7 89 1.2 S 22 30 12 16 1013.8 - 0.0
13/01:30am 19.5 18.3 17.6 89 1.2 S 20 30 11 16 1013.7 - 0.0
13/01:00am 19.7 18.2 17.8 89 1.2 S 22 30 12 16 1013.7 - 0.0
13/12:30am 19.9 19.2 18.2 90 1.1 S 19 28 10 15 1013.8 - 0.0
13/12:00am 20.5 19.3 18.3 87 1.4 S 22 30 12 16 1013.9 1013.2 0.0
 
Date/Time
WST
Temp
°C
App
Temp
°C
Dew
Point
Rel
Hum
%
Delta-T
°C
Wind Press
QNH
hPa
Press
MSL
hPa
Rain
since 9 am
mm
Dir
 
Spd
km/h
Gust
km/h
Spd
kts
Gust
kts
12/11:30pm 21.2 19.7 18.6 85 1.6 S 24 32 13 17 1014.0 - 0.0
12/11:00pm 22.1 20.8 17.2 74 3.0 S 20 30 11 16 1014.2 - 0.0
12/10:30pm 22.8 19.8 15.9 65 4.2 S 26 35 14 19 1014.2 - 0.0
12/10:00pm 23.7 19.6 13.8 53 5.8 S 28 37 15 20 1014.2 - 0.0
12/09:30pm 25.3 20.0 8.3 34 9.2 S 26 35 14 19 1014.2 - 0.0
12/09:00pm 27.1 22.1 8.0 30 10.4 S 24 33 13 18 1014.0 1013.3 0.0
12/08:30pm 28.2 23.3 9.9 32 10.3 S 26 33 14 18 1013.5 - 0.0
12/08:00pm 29.2 24.7 12.6 36 9.8 S 28 33 15 18 1013.1 - 0.0
12/07:30pm 31.5 27.9 5.1 19 14.0 SE 13 15 7 8 1012.6 - 0.0
12/07:00pm 32.0 28.9 5.5 19 14.2 SE 11 13 6 7 1012.3 - 0.0
12/06:30pm 34.6 32.0 4.2 15 16.1 E 7 11 4 6 1012.2 - 0.0
12/06:00pm 37.2 35.7 3.1 12 18.1 CALM 0 0 0 0 1012.0 1011.3 0.0
12/05:30pm 38.4 35.4 4.0 12 18.6 S 9 13 5 7 1011.6 - 0.0
12/05:00pm 38.7 36.1 3.0 11 19.0 SE 6 11 3 6 1011.4 - 0.0
12/04:30pm 39.3 36.7 3.4 11 19.3 SSE 6 9 3 5 1011.2 - 0.0
12/04:00pm 39.4 35.5 3.5 11 19.3 ESE 13 17 7 9 1011.1 - 0.0
12/03:30pm 39.7 37.0 3.7 11 19.5 NNW 7 11 4 6 1011.2 - 0.0
12/03:00pm 38.9 36.1 3.1 11 19.1 E 7 15 4 8 1011.2 1010.6 0.0
12/02:30pm 39.0 35.8 3.2 11 19.2 E 9 19 5 10 1011.6 - 0.0
12/02:00pm 39.6 36.1 3.7 11 19.4 NNW 11 15 6 8 1012.0 - 0.0
12/01:30pm 39.0 35.1 3.2 11 19.2 WNW 13 26 7 14 1012.4 - 0.0
12/01:00pm 38.3 34.5 3.9 12 18.5 NNW 13 22 7 12 1012.5 - 0.0
12/12:30pm 37.5 32.4 3.3 12 18.2 NNW 19 28 10 15 1012.7 - 0.0
12/12:00pm 36.8 32.4 2.8 12 17.9 NNW 15 28 8 15 1013.2 1012.5 0.0
12/11:30am 36.4 31.8 3.6 13 17.4 N 17 26 9 14 1013.7 - 0.0
12/11:00am 34.8 30.3 2.3 13 16.7 N 15 30 8 16 1014.2 - 0.0
12/10:30am 33.7 28.9 2.5 14 16.0 N 17 26 9 14 1014.6 - 0.0
12/10:00am 33.0 28.2 4.7 17 15.0 N 19 24 10 13 1014.9 - 0.0
12/09:30am 31.6 27.6 6.6 21 13.6 N 17 26 9 14 1015.1 - 0.0
12/09:00am 29.6 25.4 7.5 25 12.0 N 19 30 10 16 1015.3 1014.6 0.0
12/08:30am 27.9 24.1 9.7 32 10.2 N 20 28 11 15 1015.2 - 0.0
12/08:00am 25.6 22.7 11.0 40 8.3 N 17 22 9 12 1015.5 - 0.0
12/07:30am 23.7 21.3 13.8 53 5.8 NNE 19 24 10 13 1015.7 - 0.0
12/07:00am 21.5 19.6 14.2 63 4.3 NNE 17 20 9 11 1015.7 - 0.0
12/06:30am 19.5 16.9 15.0 75 2.7 NNE 22 26 12 14 1015.8 - 0.0
12/06:00am 17.1 16.1 14.7 86 1.4 NNE 13 17 7 9 1015.8 1015.1 0.0
12/05:30am 15.1 14.1 13.5 90 0.9 NNE 11 11 6 6 1015.9 - 0.0
12/05:00am 14.6 13.5 13.1 91 0.8 NNE 11 13 6 7 1015.7 - 0.0
12/04:30am 14.7 13.6 13.1 90 0.9 NNE 11 13 6 7 1015.5 - 0.0
12/04:00am 15.0 13.9 13.2 89 1.0 NNE 11 11 6 6 1015.4 - 0.0
12/03:30am 15.5 14.6 13.7 89 1.0 NNE 11 13 6 7 1015.3 - 0.0
12/03:00am 15.6 14.3 13.8 89 1.0 NNE 13 13 7 7 1015.0 1014.3 0.0
12/02:30am 15.7 14.7 13.5 87 1.2 NE 11 13 6 7 1015.0 - 0.0
12/02:00am 16.0 15.1 13.7 86 1.3 ENE 11 11 6 6 1015.1 - 0.0
12/01:30am 16.5 16.0 13.8 84 1.5 E 9 9 5 5 1015.4 - 0.0
12/01:00am 17.1 16.7 14.0 82 1.8 E 9 9 5 5 1015.8 - 0.0
12/12:30am 17.6 16.9 14.3 81 1.9 E 11 11 6 6 1016.0 - 0.0
12/12:00am 18.1 17.4 14.4 79 2.1 E 11 13 6 7 1016.4 1015.7 0.0
 
Date/Time
WST
Temp
°C
App
Temp
°C
Dew
Point
Rel
Hum
%
Delta-T
°C
Wind Press
QNH
hPa
Press
MSL
hPa
Rain
since 9 am
mm
Dir
 
Spd
km/h
Gust
km/h
Spd
kts
Gust
kts
11/11:30pm 18.5 17.4 14.4 77 2.4 E 13 15 7 8 1016.9 - 0.0
11/11:00pm 19.3 18.0 14.8 75 2.6 E 15 17 8 9 1017.2 - 0.0
11/10:30pm 19.7 18.7 14.7 73 2.9 E 13 15 7 8 1017.5 - 0.0
11/10:00pm 20.3 19.0 14.7 70 3.3 ESE 15 19 8 10 1017.5 - 0.0
11/09:30pm 21.0 20.0 14.6 67 3.8 ESE 13 17 7 9 1017.7 - 0.0
11/09:00pm 21.6 20.3 14.7 65 4.1 ESE 15 20 8 11 1017.6 1017.0 0.0
11/08:30pm 22.4 20.5 14.3 60 4.8 ESE 17 24 9 13 1017.6 - 0.0
11/08:00pm 23.5 21.0 14.2 56 5.5 ESE 20 26 11 14 1017.4 - 0.0
11/07:30pm 24.5 21.9 13.7 51 6.4 ESE 20 28 11 15 1017.2 - 0.0
11/07:00pm 25.5 22.0 13.4 47 7.1 SE 24 30 13 16 1016.9 - 0.0
11/06:30pm 26.6 22.8 13.7 45 7.7 SE 26 33 14 18 1016.4 - 0.0
11/06:00pm 28.1 24.8 14.0 42 8.5 SE 24 35 13 19 1016.2 1015.5 0.0
11/05:30pm 29.6 25.6 14.2 39 9.3 SE 28 39 15 21 1015.5 - 0.0
11/05:00pm 31.2 26.4 13.9 35 10.5 SE 32 39 17 21 1015.1 - 0.0
11/04:30pm 32.6 28.3 13.3 31 11.7 SE 28 41 15 22 1014.7 - 0.0
11/04:00pm 33.8 29.5 7.7 20 14.6 SSE 20 30 11 16 1014.5 - 0.0
11/03:30pm 34.1 30.0 8.0 20 14.7 SSE 19 30 10 16 1014.6 - 0.0
11/03:00pm 33.7 30.5 8.3 21 14.3 S 15 26 8 14 1014.7 1014.0 0.0
11/02:30pm 33.9 30.0 7.0 19 14.9 SSE 17 28 9 15 1014.8 - 0.0
11/02:00pm 33.7 30.8 8.3 21 14.3 SE 13 24 7 13 1015.0 - 0.0
11/01:30pm 33.1 29.9 8.5 22 13.9 ESE 15 26 8 14 1015.1 - 0.0
11/01:00pm 32.3 29.1 8.5 23 13.4 ESE 15 24 8 13 1015.5 - 0.0
11/12:30pm 31.8 29.7 8.1 23 13.2 SSE 9 17 5 9 1015.9 - 0.0
11/12:00pm 31.0 28.1 8.1 24 12.7 E 13 24 7 13 1016.3 1015.6 0.0
11/11:30am 29.5 27.1 8.5 27 11.6 E 11 20 6 11 1016.6 - 0.0
11/11:00am 28.3 26.3 10.0 32 10.3 E 11 19 6 10 1016.9 - 0.0
11/10:30am 27.7 25.3 11.3 36 9.4 E 15 20 8 11 1017.3 - 0.0
11/10:00am 26.3 23.3 12.0 41 8.3 E 19 26 10 14 1017.5 - 0.0
11/09:30am 24.9 22.0 12.8 47 7.0 ENE 20 28 11 15 1017.4 - 0.0
11/09:00am 23.6 22.2 14.6 57 5.4 ENE 15 24 8 13 1017.8 1017.2 0.0
11/08:30am 21.7 20.0 14.6 64 4.2 ENE 17 28 9 15 1018.0 - 0.0
11/08:00am 20.2 18.1 14.8 71 3.2 E 19 24 10 13 1018.3 - 0.0
11/07:30am 18.5 16.3 15.0 80 2.1 ENE 20 28 11 15 1018.5 - 0.0
11/07:00am 17.1 14.1 14.7 86 1.4 E 24 30 13 16 1018.3 - 0.0
11/06:30am 16.4 13.8 14.8 90 0.9 E 22 28 12 15 1018.6 - 0.0
11/06:00am 14.6 13.7 13.8 95 0.5 E 11 17 6 9 1018.7 1018.0 0.0
11/05:30am 13.2 11.9 12.4 95 0.4 E 11 13 6 7 1018.3 - 0.0
11/05:00am 13.0 11.6 12.2 95 0.4 ESE 11 11 6 6 1018.3 - 0.0
11/04:30am 13.1 12.1 12.2 94 0.5 E 9 11 5 6 1018.1 - 0.0
11/04:00am 13.0 11.5 11.9 93 0.6 SE 11 11 6 6 1018.0 - 0.0
11/03:30am 14.0 13.3 13.1 94 0.5 SE 9 9 5 5 1017.7 - 0.0
11/03:00am 13.7 12.4 12.6 93 0.6 SE 11 11 6 6 1017.6 1017.0 0.0
11/02:30am 14.5 13.9 13.4 93 0.6 SE 9 11 5 6 1017.4 - 0.0
11/02:00am 14.2 13.4 12.8 91 0.8 ESE 9 11 5 6 1017.3 - 0.0
11/01:30am 14.3 13.4 12.7 90 0.9 SSE 9 11 5 6 1017.4 - 0.0
11/01:00am 15.0 14.4 13.4 90 0.9 SE 9 9 5 5 1017.6 - 0.0
11/12:30am 15.2 14.9 13.2 88 1.1 E 7 9 4 5 1017.5 - 0.0
11/12:00am 15.5 14.5 13.3 87 1.2 SE 11 11 6 6 1017.9 1017.3 0.0

Other Formats:

Comma delimited format used in spreadsheet applications
http://www.bom.gov.au/fwo/IDW60801/IDW60801.95646.axf

JavaScript Object Notation format (JSON) in row-major order
http://www.bom.gov.au/fwo/IDW60801/IDW60801.95646.json